sensor_id;sensor_type;location;lat;lon;timestamp;P1;durP1;ratioP1;P2;durP2;ratioP2
73859;SDS011;62197;51.632;13.700;2023-09-19T00:01:22;4.03;;;1.20;;
73859;SDS011;62197;51.632;13.700;2023-09-19T00:03:47;7.20;;;1.25;;
73859;SDS011;62197;51.632;13.700;2023-09-19T00:06:13;1.88;;;1.10;;
73859;SDS011;62197;51.632;13.700;2023-09-19T00:08:40;4.75;;;1.20;;
73859;SDS011;62197;51.632;13.700;2023-09-19T00:11:08;2.40;;;1.13;;
73859;SDS011;62197;51.632;13.700;2023-09-19T00:13:35;5.63;;;1.10;;
73859;SDS011;62197;51.632;13.700;2023-09-19T00:16:01;5.45;;;1.10;;
73859;SDS011;62197;51.632;13.700;2023-09-19T00:18:33;2.25;;;1.02;;
73859;SDS011;62197;51.632;13.700;2023-09-19T00:20:59;3.63;;;1.17;;
73859;SDS011;62197;51.632;13.700;2023-09-19T00:23:25;1.60;;;0.85;;
73859;SDS011;62197;51.632;13.700;2023-09-19T00:25:51;2.35;;;1.48;;
73859;SDS011;62197;51.632;13.700;2023-09-19T00:28:16;5.28;;;1.27;;
73859;SDS011;62197;51.632;13.700;2023-09-19T00:30:44;2.22;;;1.20;;
73859;SDS011;62197;51.632;13.700;2023-09-19T00:33:14;2.20;;;1.20;;
73859;SDS011;62197;51.632;13.700;2023-09-19T00:35:46;4.43;;;1.10;;
73859;SDS011;62197;51.632;13.700;2023-09-19T00:38:12;2.72;;;1.10;;
73859;SDS011;62197;51.632;13.700;2023-09-19T00:40:44;3.03;;;1.45;;
73859;SDS011;62197;51.632;13.700;2023-09-19T00:43:10;3.67;;;1.40;;
73859;SDS011;62197;51.632;13.700;2023-09-19T00:45:36;3.40;;;1.10;;
73859;SDS011;62197;51.632;13.700;2023-09-19T00:48:03;3.40;;;1.27;;
73859;SDS011;62197;51.632;13.700;2023-09-19T00:50:31;2.00;;;1.10;;
73859;SDS011;62197;51.632;13.700;2023-09-19T00:52:57;4.00;;;1.00;;
73859;SDS011;62197;51.632;13.700;2023-09-19T00:55:24;4.70;;;0.90;;
73859;SDS011;62197;51.632;13.700;2023-09-19T00:57:50;1.77;;;1.00;;
73859;SDS011;62197;51.632;13.700;2023-09-19T01:00:16;2.60;;;1.05;;
73859;SDS011;62197;51.632;13.700;2023-09-19T01:02:45;2.03;;;1.10;;
73859;SDS011;62197;51.632;13.700;2023-09-19T01:05:11;3.25;;;1.00;;
73859;SDS011;62197;51.632;13.700;2023-09-19T01:07:37;3.13;;;1.20;;
73859;SDS011;62197;51.632;13.700;2023-09-19T01:10:06;2.67;;;1.13;;
73859;SDS011;62197;51.632;13.700;2023-09-19T01:12:53;3.25;;;1.58;;
73859;SDS011;62197;51.632;13.700;2023-09-19T01:15:31;3.10;;;1.27;;
73859;SDS011;62197;51.632;13.700;2023-09-19T01:21:03;3.38;;;1.30;;
73859;SDS011;62197;51.632;13.700;2023-09-19T01:23:47;3.33;;;1.55;;
73859;SDS011;62197;51.632;13.700;2023-09-19T01:26:30;3.90;;;1.27;;
73859;SDS011;62197;51.632;13.700;2023-09-19T01:32:18;1.65;;;1.08;;
73859;SDS011;62197;51.632;13.700;2023-09-19T01:34:51;2.85;;;1.35;;
73859;SDS011;62197;51.632;13.700;2023-09-19T01:37:19;3.25;;;1.05;;
73859;SDS011;62197;51.632;13.700;2023-09-19T01:39:57;2.28;;;1.05;;
73859;SDS011;62197;51.632;13.700;2023-09-19T01:42:54;3.95;;;1.30;;
73859;SDS011;62197;51.632;13.700;2023-09-19T01:45:35;2.13;;;1.17;;
73859;SDS011;62197;51.632;13.700;2023-09-19T01:50:59;4.70;;;1.42;;
73859;SDS011;62197;51.632;13.700;2023-09-19T01:53:36;4.63;;;1.83;;
73859;SDS011;62197;51.632;13.700;2023-09-19T01:56:16;2.20;;;1.27;;
73859;SDS011;62197;51.632;13.700;2023-09-19T01:58:51;2.85;;;1.45;;
73859;SDS011;62197;51.632;13.700;2023-09-19T02:01:22;5.50;;;1.52;;
73859;SDS011;62197;51.632;13.700;2023-09-19T02:03:48;2.92;;;1.58;;
73859;SDS011;62197;51.632;13.700;2023-09-19T02:06:15;8.35;;;1.60;;
73859;SDS011;62197;51.632;13.700;2023-09-19T02:08:42;3.30;;;1.50;;
73859;SDS011;62197;51.632;13.700;2023-09-19T02:11:08;3.38;;;1.23;;
73859;SDS011;62197;51.632;13.700;2023-09-19T02:13:33;4.03;;;1.55;;
73859;SDS011;62197;51.632;13.700;2023-09-19T02:15:59;6.10;;;1.40;;
73859;SDS011;62197;51.632;13.700;2023-09-19T02:18:24;2.85;;;1.40;;
73859;SDS011;62197;51.632;13.700;2023-09-19T02:20:52;2.63;;;1.20;;
73859;SDS011;62197;51.632;13.700;2023-09-19T02:23:19;6.38;;;1.67;;
73859;SDS011;62197;51.632;13.700;2023-09-19T02:25:51;3.05;;;1.17;;
73859;SDS011;62197;51.632;13.700;2023-09-19T02:28:17;4.50;;;1.60;;
73859;SDS011;62197;51.632;13.700;2023-09-19T02:30:42;2.30;;;1.48;;
73859;SDS011;62197;51.632;13.700;2023-09-19T02:33:08;3.15;;;1.65;;
73859;SDS011;62197;51.632;13.700;2023-09-19T02:35:33;3.00;;;1.65;;
73859;SDS011;62197;51.632;13.700;2023-09-19T02:38:01;5.88;;;1.67;;
73859;SDS011;62197;51.632;13.700;2023-09-19T02:40:27;5.03;;;1.80;;
73859;SDS011;62197;51.632;13.700;2023-09-19T02:42:54;4.93;;;2.05;;
73859;SDS011;62197;51.632;13.700;2023-09-19T02:45:20;3.38;;;1.55;;
73859;SDS011;62197;51.632;13.700;2023-09-19T02:47:46;2.72;;;1.50;;
73859;SDS011;62197;51.632;13.700;2023-09-19T02:50:12;2.95;;;1.52;;
73859;SDS011;62197;51.632;13.700;2023-09-19T02:52:38;3.33;;;2.10;;
73859;SDS011;62197;51.632;13.700;2023-09-19T02:55:06;3.95;;;1.52;;
73859;SDS011;62197;51.632;13.700;2023-09-19T02:57:34;4.72;;;2.00;;
73859;SDS011;62197;51.632;13.700;2023-09-19T02:59:59;4.65;;;2.10;;
73859;SDS011;62197;51.632;13.700;2023-09-19T03:02:26;2.58;;;1.60;;
73859;SDS011;62197;51.632;13.700;2023-09-19T03:04:52;3.92;;;1.60;;
73859;SDS011;62197;51.632;13.700;2023-09-19T03:07:18;7.15;;;1.63;;
73859;SDS011;62197;51.632;13.700;2023-09-19T03:09:43;3.70;;;1.70;;
73859;SDS011;62197;51.632;13.700;2023-09-19T03:12:09;3.33;;;1.73;;
73859;SDS011;62197;51.632;13.700;2023-09-19T03:14:35;3.33;;;2.53;;
73859;SDS011;62197;51.632;13.700;2023-09-19T03:17:01;3.63;;;1.48;;
73859;SDS011;62197;51.632;13.700;2023-09-19T03:19:29;3.22;;;1.88;;
73859;SDS011;62197;51.632;13.700;2023-09-19T03:21:55;4.50;;;1.73;;
73859;SDS011;62197;51.632;13.700;2023-09-19T03:24:22;2.30;;;1.40;;
73859;SDS011;62197;51.632;13.700;2023-09-19T03:26:48;2.80;;;1.73;;
73859;SDS011;62197;51.632;13.700;2023-09-19T03:29:13;4.07;;;2.20;;
73859;SDS011;62197;51.632;13.700;2023-09-19T03:31:40;4.18;;;2.25;;
73859;SDS011;62197;51.632;13.700;2023-09-19T03:34:06;5.30;;;1.88;;
73859;SDS011;62197;51.632;13.700;2023-09-19T03:36:31;4.43;;;1.92;;
73859;SDS011;62197;51.632;13.700;2023-09-19T03:38:56;4.72;;;2.15;;
73859;SDS011;62197;51.632;13.700;2023-09-19T03:41:22;8.35;;;2.58;;
73859;SDS011;62197;51.632;13.700;2023-09-19T03:43:47;4.00;;;1.92;;
73859;SDS011;62197;51.632;13.700;2023-09-19T03:46:13;6.10;;;2.10;;
73859;SDS011;62197;51.632;13.700;2023-09-19T03:48:39;4.60;;;2.08;;
73859;SDS011;62197;51.632;13.700;2023-09-19T03:51:05;4.70;;;1.92;;
73859;SDS011;62197;51.632;13.700;2023-09-19T03:53:30;6.22;;;2.03;;
73859;SDS011;62197;51.632;13.700;2023-09-19T03:55:56;6.35;;;2.00;;
73859;SDS011;62197;51.632;13.700;2023-09-19T03:58:22;4.78;;;2.05;;
73859;SDS011;62197;51.632;13.700;2023-09-19T04:00:47;3.22;;;1.98;;
73859;SDS011;62197;51.632;13.700;2023-09-19T04:03:14;4.20;;;2.20;;
73859;SDS011;62197;51.632;13.700;2023-09-19T04:05:44;5.68;;;2.10;;
73859;SDS011;62197;51.632;13.700;2023-09-19T04:08:11;3.58;;;1.90;;
73859;SDS011;62197;51.632;13.700;2023-09-19T04:10:36;3.85;;;1.98;;
73859;SDS011;62197;51.632;13.700;2023-09-19T04:13:02;3.90;;;2.30;;
73859;SDS011;62197;51.632;13.700;2023-09-19T04:15:27;4.63;;;1.77;;
73859;SDS011;62197;51.632;13.700;2023-09-19T04:17:52;3.25;;;1.85;;
73859;SDS011;62197;51.632;13.700;2023-09-19T04:20:18;4.45;;;1.83;;
73859;SDS011;62197;51.632;13.700;2023-09-19T04:22:50;2.90;;;1.70;;
73859;SDS011;62197;51.632;13.700;2023-09-19T04:25:15;3.17;;;1.73;;
73859;SDS011;62197;51.632;13.700;2023-09-19T04:27:40;5.53;;;1.50;;
73859;SDS011;62197;51.632;13.700;2023-09-19T04:30:09;4.47;;;1.40;;
73859;SDS011;62197;51.632;13.700;2023-09-19T04:32:37;3.88;;;1.60;;
73859;SDS011;62197;51.632;13.700;2023-09-19T04:35:06;3.33;;;1.60;;
73859;SDS011;62197;51.632;13.700;2023-09-19T04:37:33;3.70;;;1.70;;
73859;SDS011;62197;51.632;13.700;2023-09-19T04:40:07;3.63;;;1.90;;
73859;SDS011;62197;51.632;13.700;2023-09-19T04:42:37;2.75;;;1.60;;
73859;SDS011;62197;51.632;13.700;2023-09-19T04:45:03;3.55;;;1.52;;
73859;SDS011;62197;51.632;13.700;2023-09-19T04:47:29;2.35;;;1.42;;
73859;SDS011;62197;51.632;13.700;2023-09-19T04:49:55;3.55;;;1.70;;
73859;SDS011;62197;51.632;13.700;2023-09-19T04:52:21;3.63;;;1.80;;
73859;SDS011;62197;51.632;13.700;2023-09-19T04:54:47;3.47;;;1.90;;
73859;SDS011;62197;51.632;13.700;2023-09-19T04:57:13;5.32;;;1.55;;
73859;SDS011;62197;51.632;13.700;2023-09-19T04:59:38;2.65;;;1.65;;
73859;SDS011;62197;51.632;13.700;2023-09-19T05:02:06;4.97;;;1.65;;
73859;SDS011;62197;51.632;13.700;2023-09-19T05:04:33;2.90;;;1.58;;
73859;SDS011;62197;51.632;13.700;2023-09-19T05:06:58;4.18;;;1.40;;
73859;SDS011;62197;51.632;13.700;2023-09-19T05:09:23;4.30;;;1.80;;
73859;SDS011;62197;51.632;13.700;2023-09-19T05:11:49;3.35;;;1.42;;
73859;SDS011;62197;51.632;13.700;2023-09-19T05:14:16;2.45;;;1.48;;
73859;SDS011;62197;51.632;13.700;2023-09-19T05:16:41;5.13;;;1.52;;
73859;SDS011;62197;51.632;13.700;2023-09-19T05:19:07;2.53;;;1.33;;
73859;SDS011;62197;51.632;13.700;2023-09-19T05:21:36;3.13;;;1.40;;
73859;SDS011;62197;51.632;13.700;2023-09-19T05:24:03;2.97;;;1.38;;
73859;SDS011;62197;51.632;13.700;2023-09-19T05:26:31;2.75;;;1.30;;
73859;SDS011;62197;51.632;13.700;2023-09-19T05:28:56;3.67;;;1.55;;
73859;SDS011;62197;51.632;13.700;2023-09-19T05:31:22;2.67;;;1.45;;
73859;SDS011;62197;51.632;13.700;2023-09-19T05:33:49;1.98;;;1.30;;
73859;SDS011;62197;51.632;13.700;2023-09-19T05:36:15;2.85;;;2.00;;
73859;SDS011;62197;51.632;13.700;2023-09-19T05:38:41;2.83;;;1.20;;
73859;SDS011;62197;51.632;13.700;2023-09-19T05:41:07;3.90;;;1.33;;
73859;SDS011;62197;51.632;13.700;2023-09-19T05:43:34;2.70;;;1.20;;
73859;SDS011;62197;51.632;13.700;2023-09-19T05:46:02;3.88;;;1.25;;
73859;SDS011;62197;51.632;13.700;2023-09-19T05:48:27;2.70;;;1.25;;
73859;SDS011;62197;51.632;13.700;2023-09-19T05:50:53;2.70;;;1.42;;
73859;SDS011;62197;51.632;13.700;2023-09-19T05:53:18;3.42;;;1.27;;
73859;SDS011;62197;51.632;13.700;2023-09-19T05:55:43;2.20;;;1.38;;
73859;SDS011;62197;51.632;13.700;2023-09-19T05:58:09;3.03;;;1.50;;
73859;SDS011;62197;51.632;13.700;2023-09-19T06:00:35;2.35;;;1.33;;
73859;SDS011;62197;51.632;13.700;2023-09-19T06:03:01;3.13;;;1.33;;
73859;SDS011;62197;51.632;13.700;2023-09-19T06:05:27;2.78;;;1.02;;
73859;SDS011;62197;51.632;13.700;2023-09-19T06:07:53;6.72;;;1.83;;
73859;SDS011;62197;51.632;13.700;2023-09-19T06:10:18;2.30;;;1.38;;
73859;SDS011;62197;51.632;13.700;2023-09-19T06:12:45;2.15;;;1.35;;
73859;SDS011;62197;51.632;13.700;2023-09-19T06:15:12;4.55;;;1.30;;
73859;SDS011;62197;51.632;13.700;2023-09-19T06:17:46;3.10;;;1.10;;
73859;SDS011;62197;51.632;13.700;2023-09-19T06:20:15;1.73;;;1.05;;
73859;SDS011;62197;51.632;13.700;2023-09-19T06:22:41;3.92;;;1.60;;
73859;SDS011;62197;51.632;13.700;2023-09-19T06:25:08;1.90;;;1.08;;
73859;SDS011;62197;51.632;13.700;2023-09-19T06:27:37;1.85;;;0.82;;
73859;SDS011;62197;51.632;13.700;2023-09-19T06:30:03;1.98;;;0.85;;
73859;SDS011;62197;51.632;13.700;2023-09-19T06:32:29;3.13;;;1.20;;
73859;SDS011;62197;51.632;13.700;2023-09-19T06:34:54;2.42;;;0.95;;
73859;SDS011;62197;51.632;13.700;2023-09-19T06:37:20;1.90;;;0.93;;
73859;SDS011;62197;51.632;13.700;2023-09-19T06:39:47;1.33;;;0.85;;
73859;SDS011;62197;51.632;13.700;2023-09-19T06:42:14;2.17;;;0.82;;
73859;SDS011;62197;51.632;13.700;2023-09-19T06:44:42;2.60;;;1.30;;
73859;SDS011;62197;51.632;13.700;2023-09-19T06:47:07;2.80;;;1.35;;
73859;SDS011;62197;51.632;13.700;2023-09-19T06:49:34;1.40;;;0.70;;
73859;SDS011;62197;51.632;13.700;2023-09-19T06:52:00;1.95;;;1.00;;
73859;SDS011;62197;51.632;13.700;2023-09-19T06:54:25;3.00;;;1.20;;
73859;SDS011;62197;51.632;13.700;2023-09-19T06:56:52;1.70;;;0.93;;
73859;SDS011;62197;51.632;13.700;2023-09-19T06:59:20;2.60;;;1.40;;
73859;SDS011;62197;51.632;13.700;2023-09-19T07:01:45;1.27;;;0.80;;
73859;SDS011;62197;51.632;13.700;2023-09-19T07:04:12;3.08;;;0.95;;
73859;SDS011;62197;51.632;13.700;2023-09-19T07:06:37;2.10;;;0.98;;
73859;SDS011;62197;51.632;13.700;2023-09-19T07:09:03;2.45;;;0.77;;
73859;SDS011;62197;51.632;13.700;2023-09-19T07:11:29;2.33;;;0.82;;
73859;SDS011;62197;51.632;13.700;2023-09-19T07:13:55;2.28;;;0.80;;
73859;SDS011;62197;51.632;13.700;2023-09-19T07:16:21;7.93;;;1.17;;
73859;SDS011;62197;51.632;13.700;2023-09-19T07:18:54;2.53;;;1.10;;
73859;SDS011;62197;51.632;13.700;2023-09-19T07:21:21;3.20;;;0.90;;
73859;SDS011;62197;51.632;13.700;2023-09-19T07:23:47;1.08;;;0.57;;
73859;SDS011;62197;51.632;13.700;2023-09-19T07:26:12;2.80;;;0.90;;
73859;SDS011;62197;51.632;13.700;2023-09-19T07:28:38;1.58;;;0.98;;
73859;SDS011;62197;51.632;13.700;2023-09-19T07:31:03;3.65;;;0.90;;
73859;SDS011;62197;51.632;13.700;2023-09-19T07:33:30;1.30;;;0.77;;
73859;SDS011;62197;51.632;13.700;2023-09-19T07:35:55;2.95;;;1.10;;
73859;SDS011;62197;51.632;13.700;2023-09-19T07:38:20;2.25;;;0.77;;
73859;SDS011;62197;51.632;13.700;2023-09-19T07:40:46;2.55;;;0.98;;
73859;SDS011;62197;51.632;13.700;2023-09-19T07:43:11;1.65;;;0.73;;
73859;SDS011;62197;51.632;13.700;2023-09-19T07:45:37;1.38;;;0.60;;
73859;SDS011;62197;51.632;13.700;2023-09-19T07:48:02;2.42;;;0.65;;
73859;SDS011;62197;51.632;13.700;2023-09-19T07:50:29;1.42;;;0.50;;
73859;SDS011;62197;51.632;13.700;2023-09-19T07:52:55;2.58;;;1.02;;
73859;SDS011;62197;51.632;13.700;2023-09-19T07:55:21;1.20;;;0.60;;
73859;SDS011;62197;51.632;13.700;2023-09-19T07:57:50;2.35;;;0.82;;
73859;SDS011;62197;51.632;13.700;2023-09-19T08:00:16;1.75;;;0.60;;
73859;SDS011;62197;51.632;13.700;2023-09-19T08:02:42;2.15;;;0.73;;
73859;SDS011;62197;51.632;13.700;2023-09-19T08:05:08;1.70;;;0.70;;
73859;SDS011;62197;51.632;13.700;2023-09-19T08:07:38;2.15;;;0.80;;
73859;SDS011;62197;51.632;13.700;2023-09-19T08:10:05;2.35;;;0.80;;
73859;SDS011;62197;51.632;13.700;2023-09-19T08:12:37;1.58;;;0.70;;
73859;SDS011;62197;51.632;13.700;2023-09-19T08:15:02;4.72;;;0.90;;
73859;SDS011;62197;51.632;13.700;2023-09-19T08:17:28;3.50;;;0.90;;
73859;SDS011;62197;51.632;13.700;2023-09-19T08:19:54;2.35;;;0.80;;
73859;SDS011;62197;51.632;13.700;2023-09-19T08:22:19;2.00;;;0.57;;
73859;SDS011;62197;51.632;13.700;2023-09-19T08:24:46;2.00;;;0.70;;
73859;SDS011;62197;51.632;13.700;2023-09-19T08:27:13;2.28;;;0.88;;
73859;SDS011;62197;51.632;13.700;2023-09-19T08:29:38;3.10;;;0.90;;
73859;SDS011;62197;51.632;13.700;2023-09-19T08:32:04;2.70;;;0.60;;
73859;SDS011;62197;51.632;13.700;2023-09-19T08:34:29;4.50;;;0.73;;
73859;SDS011;62197;51.632;13.700;2023-09-19T08:36:59;1.23;;;0.50;;
73859;SDS011;62197;51.632;13.700;2023-09-19T08:39:24;1.92;;;0.63;;
73859;SDS011;62197;51.632;13.700;2023-09-19T08:41:57;1.00;;;0.60;;
73859;SDS011;62197;51.632;13.700;2023-09-19T08:44:24;3.00;;;0.60;;
73859;SDS011;62197;51.632;13.700;2023-09-19T08:46:49;1.20;;;0.60;;
73859;SDS011;62197;51.632;13.700;2023-09-19T08:49:24;1.42;;;0.70;;
73859;SDS011;62197;51.632;13.700;2023-09-19T08:52:05;2.83;;;0.73;;
73859;SDS011;62197;51.632;13.700;2023-09-19T08:54:41;1.67;;;0.52;;
73859;SDS011;62197;51.632;13.700;2023-09-19T08:57:07;1.95;;;0.70;;
73859;SDS011;62197;51.632;13.700;2023-09-19T08:59:37;1.52;;;1.20;;
73859;SDS011;62197;51.632;13.700;2023-09-19T09:02:05;2.88;;;0.68;;
73859;SDS011;62197;51.632;13.700;2023-09-19T09:04:38;2.35;;;0.52;;
73859;SDS011;62197;51.632;13.700;2023-09-19T09:07:05;2.08;;;0.98;;
73859;SDS011;62197;51.632;13.700;2023-09-19T09:09:35;1.40;;;0.80;;
73859;SDS011;62197;51.632;13.700;2023-09-19T09:12:00;2.72;;;0.70;;
73859;SDS011;62197;51.632;13.700;2023-09-19T09:14:27;3.85;;;1.33;;
73859;SDS011;62197;51.632;13.700;2023-09-19T09:16:55;2.75;;;0.80;;
73859;SDS011;62197;51.632;13.700;2023-09-19T09:19:23;1.60;;;0.75;;
73859;SDS011;62197;51.632;13.700;2023-09-19T09:21:50;1.75;;;1.15;;
73859;SDS011;62197;51.632;13.700;2023-09-19T09:24:26;2.92;;;0.73;;
73859;SDS011;62197;51.632;13.700;2023-09-19T09:26:55;0.88;;;0.50;;
73859;SDS011;62197;51.632;13.700;2023-09-19T09:29:40;1.20;;;0.73;;
73859;SDS011;62197;51.632;13.700;2023-09-19T09:35:01;3.03;;;0.80;;
73859;SDS011;62197;51.632;13.700;2023-09-19T09:37:34;4.50;;;0.63;;
73859;SDS011;62197;51.632;13.700;2023-09-19T09:40:03;4.10;;;1.13;;
73859;SDS011;62197;51.632;13.700;2023-09-19T09:42:42;3.80;;;0.90;;
73859;SDS011;62197;51.632;13.700;2023-09-19T09:45:15;1.60;;;0.55;;
73859;SDS011;62197;51.632;13.700;2023-09-19T09:47:45;3.95;;;0.70;;
73859;SDS011;62197;51.632;13.700;2023-09-19T09:50:22;2.00;;;0.57;;
73859;SDS011;62197;51.632;13.700;2023-09-19T09:53:02;2.00;;;0.65;;
73859;SDS011;62197;51.632;13.700;2023-09-19T09:58:31;1.77;;;0.82;;
73859;SDS011;62197;51.632;13.700;2023-09-19T10:00:57;2.15;;;0.73;;
73859;SDS011;62197;51.632;13.700;2023-09-19T10:03:31;2.03;;;0.75;;
73859;SDS011;62197;51.632;13.700;2023-09-19T10:05:59;2.50;;;0.75;;
73859;SDS011;62197;51.632;13.700;2023-09-19T10:08:33;2.72;;;0.77;;
73859;SDS011;62197;51.632;13.700;2023-09-19T10:11:00;8.40;;;0.95;;
73859;SDS011;62197;51.632;13.700;2023-09-19T10:13:29;2.00;;;0.40;;
73859;SDS011;62197;51.632;13.700;2023-09-19T10:15:56;2.28;;;0.60;;
73859;SDS011;62197;51.632;13.700;2023-09-19T10:18:24;1.35;;;0.50;;
73859;SDS011;62197;51.632;13.700;2023-09-19T10:20:51;5.22;;;0.70;;
73859;SDS011;62197;51.632;13.700;2023-09-19T10:23:17;4.38;;;0.70;;
73859;SDS011;62197;51.632;13.700;2023-09-19T10:25:51;4.57;;;0.90;;
73859;SDS011;62197;51.632;13.700;2023-09-19T10:28:18;2.53;;;0.60;;
73859;SDS011;62197;51.632;13.700;2023-09-19T10:30:47;2.55;;;0.50;;
73859;SDS011;62197;51.632;13.700;2023-09-19T10:33:15;1.48;;;0.60;;
73859;SDS011;62197;51.632;13.700;2023-09-19T10:35:43;2.15;;;0.73;;
73859;SDS011;62197;51.632;13.700;2023-09-19T10:38:11;2.95;;;0.85;;
73859;SDS011;62197;51.632;13.700;2023-09-19T10:40:39;1.92;;;0.85;;
73859;SDS011;62197;51.632;13.700;2023-09-19T10:43:17;1.83;;;0.63;;
73859;SDS011;62197;51.632;13.700;2023-09-19T10:45:44;1.92;;;1.10;;
73859;SDS011;62197;51.632;13.700;2023-09-19T10:48:14;1.58;;;0.80;;
73859;SDS011;62197;51.632;13.700;2023-09-19T10:53:30;2.58;;;0.82;;
73859;SDS011;62197;51.632;13.700;2023-09-19T10:56:07;2.38;;;0.73;;
73859;SDS011;62197;51.632;13.700;2023-09-19T10:58:39;3.42;;;0.80;;
73859;SDS011;62197;51.632;13.700;2023-09-19T11:01:09;4.15;;;0.98;;
73859;SDS011;62197;51.632;13.700;2023-09-19T11:03:40;2.00;;;0.90;;
73859;SDS011;62197;51.632;13.700;2023-09-19T11:06:12;1.60;;;0.60;;
73859;SDS011;62197;51.632;13.700;2023-09-19T11:30:43;3.05;;;0.98;;
73859;SDS011;62197;51.632;13.700;2023-09-19T11:33:20;4.75;;;1.10;;
73859;SDS011;62197;51.632;13.700;2023-09-19T11:46:25;2.15;;;0.63;;
73859;SDS011;62197;51.632;13.700;2023-09-19T11:48:52;2.00;;;0.85;;
73859;SDS011;62197;51.632;13.700;2023-09-19T11:51:22;2.15;;;0.73;;
73859;SDS011;62197;51.632;13.700;2023-09-19T11:53:51;3.78;;;0.98;;
73859;SDS011;62197;51.632;13.700;2023-09-19T11:56:21;1.50;;;0.75;;
73859;SDS011;62197;51.632;13.700;2023-09-19T12:01:22;3.00;;;1.05;;
73859;SDS011;62197;51.632;13.700;2023-09-19T12:03:52;1.92;;;0.85;;
73859;SDS011;62197;51.632;13.700;2023-09-19T12:06:19;2.65;;;0.47;;
73859;SDS011;62197;51.632;13.700;2023-09-19T12:08:47;4.30;;;0.77;;
73859;SDS011;62197;51.632;13.700;2023-09-19T12:11:14;2.70;;;0.50;;
73859;SDS011;62197;51.632;13.700;2023-09-19T12:13:44;2.85;;;1.00;;
73859;SDS011;62197;51.632;13.700;2023-09-19T12:16:14;2.38;;;0.70;;
73859;SDS011;62197;51.632;13.700;2023-09-19T12:18:47;3.35;;;0.60;;
73859;SDS011;62197;51.632;13.700;2023-09-19T12:21:23;1.40;;;0.70;;
73859;SDS011;62197;51.632;13.700;2023-09-19T12:26:42;2.22;;;0.80;;
73859;SDS011;62197;51.632;13.700;2023-09-19T12:29:14;2.42;;;0.70;;
73859;SDS011;62197;51.632;13.700;2023-09-19T12:31:54;2.22;;;0.90;;
73859;SDS011;62197;51.632;13.700;2023-09-19T12:34:27;2.15;;;0.80;;
73859;SDS011;62197;51.632;13.700;2023-09-19T12:37:07;2.30;;;0.73;;
73859;SDS011;62197;51.632;13.700;2023-09-19T12:39:40;5.28;;;1.05;;
73859;SDS011;62197;51.632;13.700;2023-09-19T12:42:21;3.05;;;0.95;;
73859;SDS011;62197;51.632;13.700;2023-09-19T12:44:49;2.45;;;0.60;;
73859;SDS011;62197;51.632;13.700;2023-09-19T12:47:20;3.15;;;0.80;;
73859;SDS011;62197;51.632;13.700;2023-09-19T12:52:44;2.63;;;0.73;;
73859;SDS011;62197;51.632;13.700;2023-09-19T12:55:19;6.05;;;0.80;;
73859;SDS011;62197;51.632;13.700;2023-09-19T13:03:13;3.35;;;0.88;;
73859;SDS011;62197;51.632;13.700;2023-09-19T13:05:48;5.53;;;0.80;;
73859;SDS011;62197;51.632;13.700;2023-09-19T13:08:22;1.88;;;1.00;;
73859;SDS011;62197;51.632;13.700;2023-09-19T13:16:06;3.63;;;0.77;;
73859;SDS011;62197;51.632;13.700;2023-09-19T13:18:49;4.47;;;0.90;;
73859;SDS011;62197;51.632;13.700;2023-09-19T13:21:27;3.13;;;0.75;;
73859;SDS011;62197;51.632;13.700;2023-09-19T13:24:17;4.90;;;1.13;;
73859;SDS011;62197;51.632;13.700;2023-09-19T13:26:48;2.97;;;0.70;;
73859;SDS011;62197;51.632;13.700;2023-09-19T13:29:13;2.25;;;0.60;;
73859;SDS011;62197;51.632;13.700;2023-09-19T13:31:45;2.85;;;1.02;;
73859;SDS011;62197;51.632;13.700;2023-09-19T13:34:10;2.50;;;1.00;;
73859;SDS011;62197;51.632;13.700;2023-09-19T13:36:36;3.15;;;0.82;;
73859;SDS011;62197;51.632;13.700;2023-09-19T13:39:02;3.10;;;0.85;;
73859;SDS011;62197;51.632;13.700;2023-09-19T13:41:27;4.28;;;0.95;;
73859;SDS011;62197;51.632;13.700;2023-09-19T13:43:53;2.53;;;1.15;;
73859;SDS011;62197;51.632;13.700;2023-09-19T13:46:22;4.65;;;0.77;;
73859;SDS011;62197;51.632;13.700;2023-09-19T13:48:50;2.72;;;0.95;;
73859;SDS011;62197;51.632;13.700;2023-09-19T13:51:19;3.58;;;1.00;;
73859;SDS011;62197;51.632;13.700;2023-09-19T13:53:46;2.13;;;0.90;;
73859;SDS011;62197;51.632;13.700;2023-09-19T13:56:12;2.58;;;0.70;;
73859;SDS011;62197;51.632;13.700;2023-09-19T13:58:38;2.80;;;0.70;;
73859;SDS011;62197;51.632;13.700;2023-09-19T14:01:03;2.55;;;0.88;;
73859;SDS011;62197;51.632;13.700;2023-09-19T14:03:29;4.63;;;0.95;;
73859;SDS011;62197;51.632;13.700;2023-09-19T14:05:54;3.78;;;1.10;;
73859;SDS011;62197;51.632;13.700;2023-09-19T14:08:19;4.15;;;1.15;;
73859;SDS011;62197;51.632;13.700;2023-09-19T14:10:45;2.92;;;0.70;;
73859;SDS011;62197;51.632;13.700;2023-09-19T14:13:10;2.47;;;1.00;;
73859;SDS011;62197;51.632;13.700;2023-09-19T14:15:38;4.63;;;1.02;;
73859;SDS011;62197;51.632;13.700;2023-09-19T14:18:04;2.40;;;0.90;;
73859;SDS011;62197;51.632;13.700;2023-09-19T14:20:29;3.60;;;1.77;;
73859;SDS011;62197;51.632;13.700;2023-09-19T14:22:56;3.30;;;1.17;;
73859;SDS011;62197;51.632;13.700;2023-09-19T14:25:23;3.88;;;0.90;;
73859;SDS011;62197;51.632;13.700;2023-09-19T14:27:49;3.40;;;0.77;;
73859;SDS011;62197;51.632;13.700;2023-09-19T14:30:14;5.70;;;1.60;;
73859;SDS011;62197;51.632;13.700;2023-09-19T14:32:40;2.17;;;0.65;;
73859;SDS011;62197;51.632;13.700;2023-09-19T14:35:06;4.30;;;1.02;;
73859;SDS011;62197;51.632;13.700;2023-09-19T14:37:32;3.15;;;1.05;;
73859;SDS011;62197;51.632;13.700;2023-09-19T14:39:57;4.72;;;0.90;;
73859;SDS011;62197;51.632;13.700;2023-09-19T14:42:23;3.63;;;0.90;;
73859;SDS011;62197;51.632;13.700;2023-09-19T14:44:48;2.88;;;0.93;;
73859;SDS011;62197;51.632;13.700;2023-09-19T14:47:14;2.97;;;0.80;;
73859;SDS011;62197;51.632;13.700;2023-09-19T14:49:41;6.50;;;1.10;;
73859;SDS011;62197;51.632;13.700;2023-09-19T14:52:07;1.63;;;0.63;;
73859;SDS011;62197;51.632;13.700;2023-09-19T14:54:33;3.15;;;1.08;;
73859;SDS011;62197;51.632;13.700;2023-09-19T14:56:59;3.55;;;1.10;;
73859;SDS011;62197;51.632;13.700;2023-09-19T15:01:56;3.78;;;0.80;;
73859;SDS011;62197;51.632;13.700;2023-09-19T15:04:22;2.72;;;0.82;;
73859;SDS011;62197;51.632;13.700;2023-09-19T15:06:47;2.75;;;0.95;;
73859;SDS011;62197;51.632;13.700;2023-09-19T15:09:13;1.45;;;0.70;;
73859;SDS011;62197;51.632;13.700;2023-09-19T15:11:38;3.85;;;1.30;;
73859;SDS011;62197;51.632;13.700;2023-09-19T15:14:04;3.22;;;1.00;;
73859;SDS011;62197;51.632;13.700;2023-09-19T15:16:29;3.67;;;1.40;;
73859;SDS011;62197;51.632;13.700;2023-09-19T15:18:55;4.30;;;1.33;;
73859;SDS011;62197;51.632;13.700;2023-09-19T15:21:20;7.75;;;1.52;;
73859;SDS011;62197;51.632;13.700;2023-09-19T15:23:46;5.07;;;1.10;;
73859;SDS011;62197;51.632;13.700;2023-09-19T15:26:12;3.00;;;1.20;;
73859;SDS011;62197;51.632;13.700;2023-09-19T15:28:39;3.47;;;1.20;;
73859;SDS011;62197;51.632;13.700;2023-09-19T15:31:06;3.22;;;1.00;;
73859;SDS011;62197;51.632;13.700;2023-09-19T15:33:32;3.22;;;0.80;;
73859;SDS011;62197;51.632;13.700;2023-09-19T15:36:05;2.70;;;1.40;;
73859;SDS011;62197;51.632;13.700;2023-09-19T15:41:31;4.97;;;1.60;;
73859;SDS011;62197;51.632;13.700;2023-09-19T15:43:58;3.42;;;1.10;;
73859;SDS011;62197;51.632;13.700;2023-09-19T15:46:25;3.75;;;1.25;;
73859;SDS011;62197;51.632;13.700;2023-09-19T15:48:54;3.50;;;1.30;;
73859;SDS011;62197;51.632;13.700;2023-09-19T15:51:21;3.28;;;1.20;;
73859;SDS011;62197;51.632;13.700;2023-09-19T15:53:47;2.65;;;1.13;;